Time;durP1;ratioP1;P1;durP2;ratioP2;P2;SDS_P1;SDS_P2;PMS_P1;PMS_P2;Temp;Humidity;BMP_temperature;BMP_pressure;BME280_temperature;BME280_humidity;BME280_pressure;Samples;Min_cycle;Max_cycle;Signal;HPM_P1;HPM_P2
2022/12/29 00:01:19;;;;;;;2.35;2.13;;;;;;;10.30;83.62;99994.38;5047627;28;20033;-68
2022/12/29 00:03:48;;;;;;;2.17;1.65;;;;;;;10.30;83.49;99993.53;5039464;28;20117;-68
2022/12/29 00:06:13;;;;;;;1.92;1.40;;;;;;;10.28;83.38;99985.47;5048995;28;20086;-68
2022/12/29 00:08:39;;;;;;;2.38;1.50;;;;;;;10.28;82.88;99995.75;5048336;28;20052;-68
2022/12/29 00:11:07;;;;;;;1.52;1.02;;;;;;;10.28;82.32;99991.03;5049581;28;20028;-68
2022/12/29 00:16:15;;;;;;;1.65;0.90;;;;;;;10.28;81.40;99960.50;5049076;28;20167;-69
2022/12/29 00:18:41;;;;;;;2.15;1.13;;;;;;;10.28;81.81;99954.97;5048409;28;20104;-70
2022/12/29 00:36:04;;;;;;;1.33;1.10;;;;;;;10.25;82.63;99958.28;5047120;28;20047;-70
2022/12/29 00:44:06;;;;;;;1.77;1.02;;;;;;;10.24;83.69;99945.50;5034646;28;20072;-69
2022/12/29 00:46:36;;;;;;;1.30;1.10;;;;;;;10.22;84.28;99936.63;5035609;28;20043;-70
2022/12/29 00:51:47;;;;;;;3.63;1.50;;;;;;;10.21;84.61;99946.03;5042700;28;20052;-69
2022/12/29 00:54:13;;;;;;;1.42;1.33;;;;;;;10.23;84.87;99935.50;5052575;28;20392;-70
2022/12/29 00:56:38;;;;;;;3.08;1.77;;;;;;;10.24;84.91;99939.94;5050700;28;20029;-68
2022/12/29 00:59:07;;;;;;;1.70;1.60;;;;;;;10.24;85.32;99925.25;5051689;28;20036;-70
2022/12/29 01:01:33;;;;;;;2.00;1.60;;;;;;;10.24;85.60;99944.66;5051191;28;20468;-68
2022/12/29 01:03:59;;;;;;;3.25;1.83;;;;;;;10.25;85.68;99935.25;5047940;28;20045;-69
2022/12/29 01:06:24;;;;;;;2.20;2.00;;;;;;;10.25;85.54;99907.53;5048636;28;20778;-70
2022/12/29 01:10:09;;;;;;;2.20;2.00;;;;;;;10.26;85.74;99920.31;5050137;28;20045;-70
2022/12/29 01:11:36;;;;;;;1.77;1.67;;;;;;;10.28;85.76;99904.22;5050364;28;20044;-71
2022/12/29 01:14:01;;;;;;;3.15;2.20;;;;;;;10.29;85.76;99911.41;5051057;28;20040;-71
2022/12/29 01:16:26;;;;;;;2.22;2.03;;;;;;;10.28;85.85;99904.22;5052612;28;20021;-72
2022/12/29 01:18:52;;;;;;;1.90;1.80;;;;;;;10.30;85.77;99904.78;5046626;28;20053;-71
2022/12/29 01:21:17;;;;;;;3.08;2.03;;;;;;;10.28;85.88;99899.50;5040497;28;20037;-70
2022/12/29 01:23:42;;;;;;;4.57;1.90;;;;;;;10.30;85.69;99893.69;5043089;28;20098;-71
2022/12/29 01:26:12;;;;;;;1.60;1.50;;;;;;;10.28;85.58;99893.94;5050509;28;20065;-73
2022/12/29 01:28:44;;;;;;;3.00;1.73;;;;;;;10.30;85.24;99893.69;5049897;28;20388;-71
2022/12/29 01:31:11;;;;;;;1.70;1.60;;;;;;;10.27;85.23;99895.06;5047982;28;20029;-70
2022/12/29 01:33:37;;;;;;;2.13;1.48;;;;;;;10.27;84.79;99894.22;5048631;28;20471;-71
2022/12/29 01:36:04;;;;;;;1.58;1.35;;;;;;;10.27;84.54;99905.34;5045104;28;20039;-70
2022/12/29 01:38:30;;;;;;;1.30;1.20;;;;;;;10.28;84.55;99890.34;5040159;28;20133;-71
2022/12/29 01:40:55;;;;;;;1.98;1.38;;;;;;;10.28;83.98;99896.72;5043935;28;20032;-70
2022/12/29 01:43:20;;;;;;;2.58;1.65;;;;;;;10.31;83.86;99890.63;5050376;28;20025;-70
2022/12/29 01:45:52;;;;;;;2.30;1.25;;;;;;;10.31;83.46;99893.41;5051012;28;20033;-71
2022/12/29 01:48:19;;;;;;;2.05;1.45;;;;;;;10.33;83.41;99898.66;5051826;28;20040;-71
2022/12/29 01:50:52;;;;;;;1.23;1.10;;;;;;;10.35;83.01;99902.00;5050601;28;20503;-69
2022/12/29 01:53:30;;;;;;;1.50;1.20;;;;;;;10.35;83.15;99907.56;5050286;28;20036;-70
2022/12/29 01:56:01;;;;;;;1.70;0.93;;;;;;;10.36;82.76;99903.66;5046037;28;20476;-70
2022/12/29 01:58:30;;;;;;;1.42;1.02;;;;;;;10.38;82.63;99898.69;5051577;28;20029;-70
2022/12/29 02:00:56;;;;;;;1.92;1.20;;;;;;;10.40;81.86;99904.78;5051013;28;20025;-70
2022/12/29 02:03:26;;;;;;;3.03;1.20;;;;;;;10.40;81.95;99902.00;5050313;28;20039;-70
2022/12/29 02:05:54;;;;;;;3.15;1.20;;;;;;;10.42;81.92;99896.22;5050241;28;20039;-71
2022/12/29 02:08:23;;;;;;;1.98;1.38;;;;;;;10.41;81.63;99902.84;5049203;28;20025;-70
2022/12/29 02:10:48;;;;;;;2.30;1.00;;;;;;;10.42;81.54;99885.94;5049851;28;20033;-70
2022/12/29 02:13:17;;;;;;;5.03;1.23;;;;;;;10.44;81.05;99883.72;5046992;28;20047;-70
2022/12/29 02:15:42;;;;;;;3.25;1.10;;;;;;;10.45;80.84;99892.84;5049474;28;20097;-71
2022/12/29 02:18:21;;;;;;;1.95;1.00;;;;;;;10.46;81.25;99887.06;5049285;28;20036;-70
2022/12/29 02:21:23;;;;;;;3.28;1.10;;;;;;;10.49;81.38;99883.72;5050376;28;20025;-71
2022/12/29 02:23:57;;;;;;;2.60;1.02;;;;;;;10.50;80.67;99887.34;5048668;28;20033;-70
2022/12/29 02:26:47;;;;;;;5.35;1.42;;;;;;;10.51;80.84;99889.81;5049817;28;20045;-70
2022/12/29 02:29:39;;;;;;;4.10;1.45;;;;;;;10.54;80.70;99880.13;5047726;28;20040;-70
2022/12/29 02:32:29;;;;;;;4.93;1.30;;;;;;;10.54;80.83;99874.56;5048120;28;20112;-71
2022/12/29 02:35:06;;;;;;;2.97;1.40;;;;;;;10.53;80.57;99875.66;5048920;28;20025;-70
2022/12/29 02:37:42;;;;;;;1.77;0.90;;;;;;;10.52;80.17;99874.84;5040423;28;20029;-70
2022/12/29 02:40:24;;;;;;;1.42;0.98;;;;;;;10.53;80.31;99875.66;5042015;28;20025;-71
2022/12/29 02:43:20;;;;;;;3.53;1.10;;;;;;;10.51;80.31;99873.19;5048831;28;20104;-70
2022/12/29 02:46:28;;;;;;;3.25;1.38;;;;;;;10.53;80.80;99865.41;5046340;28;20063;-71
2022/12/29 02:49:03;;;;;;;2.25;1.20;;;;;;;10.51;80.54;99873.19;5022503;28;20037;-70
2022/12/29 02:51:43;;;;;;;2.65;1.10;;;;;;;10.49;80.53;99875.41;5048696;28;20072;-70
2022/12/29 02:56:53;;;;;;;2.47;1.08;;;;;;;10.50;80.81;99860.41;5047998;28;20114;-70
2022/12/29 02:59:20;;;;;;;2.97;1.20;;;;;;;10.50;80.33;99854.03;5048162;28;20488;-70
2022/12/29 03:02:18;;;;;;;2.22;1.10;;;;;;;10.50;80.79;99852.09;5049007;28;20381;-70
2022/12/29 03:05:16;;;;;;;2.42;1.00;;;;;;;10.50;80.96;99834.63;5046016;28;20123;-70
2022/12/29 03:07:56;;;;;;;2.38;1.17;;;;;;;10.50;80.53;99831.84;5030641;28;20477;-71
2022/12/29 03:10:48;;;;;;;1.95;1.23;;;;;;;10.49;80.64;99852.34;5045096;28;20076;-71
2022/12/29 03:16:39;;;;;;;3.90;1.23;;;;;;;10.49;80.41;99849.56;5048781;28;20051;-71
2022/12/29 03:19:14;;;;;;;3.28;1.20;;;;;;;10.49;80.44;99852.34;5038857;28;20822;-70
2022/12/29 03:24:35;;;;;;;1.08;0.90;;;;;;;10.48;80.17;99856.25;5029743;28;20068;-71
2022/12/29 03:27:04;;;;;;;3.75;1.05;;;;;;;10.48;79.97;99854.31;5030099;28;20048;-71
2022/12/29 03:29:36;;;;;;;1.83;1.13;;;;;;;10.47;80.19;99849.88;5036927;28;20032;-70
2022/12/29 03:32:03;;;;;;;1.70;0.98;;;;;;;10.47;79.98;99833.22;5048253;28;20116;-71
2022/12/29 03:34:30;;;;;;;6.55;1.15;;;;;;;10.48;80.06;99845.97;5046624;28;20029;-71
2022/12/29 03:37:08;;;;;;;4.78;0.93;;;;;;;10.50;80.30;99843.78;5047734;28;20035;-71
2022/12/29 03:39:33;;;;;;;1.80;1.05;;;;;;;10.50;80.14;99841.00;5049204;28;20193;-71
2022/12/29 03:42:03;;;;;;;3.33;1.20;;;;;;;10.49;79.89;99842.13;5048356;28;20549;-71
2022/12/29 03:44:40;;;;;;;2.70;1.00;;;;;;;10.49;79.92;99852.34;5048594;28;20051;-71
2022/12/29 03:47:07;;;;;;;3.72;0.98;;;;;;;10.47;79.67;99854.59;5049138;28;20036;-71
2022/12/29 03:49:33;;;;;;;1.52;1.10;;;;;;;10.44;79.66;99844.88;5047382;28;20029;-71
2022/12/29 03:51:58;;;;;;;2.95;1.00;;;;;;;10.44;79.68;99850.41;5047953;28;20043;-70
2022/12/29 03:54:24;;;;;;;1.85;1.00;;;;;;;10.42;79.64;99860.97;5034078;28;20029;-70
2022/12/29 03:56:49;;;;;;;4.43;1.23;;;;;;;10.40;79.55;99843.75;5029677;28;20111;-70
2022/12/29 03:59:15;;;;;;;3.40;1.13;;;;;;;10.41;79.97;99848.19;5040341;28;20632;-71
2022/12/29 04:01:40;;;;;;;3.33;1.13;;;;;;;10.39;79.95;99861.53;5050452;28;20423;-70
2022/12/29 04:04:06;;;;;;;4.35;1.08;;;;;;;10.37;79.99;99871.22;5052742;28;20068;-71
2022/12/29 04:06:31;;;;;;;1.92;1.00;;;;;;;10.34;79.99;99880.09;5052539;28;20809;-70
2022/12/29 04:08:56;;;;;;;3.92;1.02;;;;;;;10.34;80.14;99861.53;5051574;28;20029;-70
2022/12/29 04:11:22;;;;;;;3.50;1.23;;;;;;;10.32;80.73;99836.81;5051451;28;20033;-71
2022/12/29 04:13:47;;;;;;;4.43;1.75;;;;;;;10.31;81.12;99859.28;5052729;28;20476;-70
2022/12/29 04:16:13;;;;;;;4.57;1.55;;;;;;;10.30;81.04;99877.88;5051936;28;20041;-70
2022/12/29 04:18:38;;;;;;;4.45;1.20;;;;;;;10.28;80.59;99879.25;5050825;28;20034;-70
2022/12/29 04:21:03;;;;;;;4.72;1.25;;;;;;;10.27;80.64;99877.59;5051338;28;20037;-70
2022/12/29 04:23:35;;;;;;;3.40;1.05;;;;;;;10.23;80.89;99893.09;5050992;28;20025;-70
2022/12/29 04:26:01;;;;;;;5.37;1.27;;;;;;;10.23;81.01;99887.53;5033259;28;20029;-70
2022/12/29 04:28:27;;;;;;;3.13;1.02;;;;;;;10.24;80.81;99889.19;5039002;28;20036;-70
2022/12/29 04:30:52;;;;;;;4.40;1.30;;;;;;;10.18;80.43;99888.38;5052146;28;20029;-71
2022/12/29 04:33:18;;;;;;;4.63;1.48;;;;;;;10.20;80.45;99882.53;5052759;28;20021;-70
2022/12/29 04:35:43;;;;;;;3.92;1.10;;;;;;;10.23;80.07;99887.53;5049096;28;20124;-70
2022/12/29 04:38:09;;;;;;;6.50;1.60;;;;;;;10.19;79.70;99887.25;5043460;28;20025;-70
2022/12/29 04:40:34;;;;;;;5.45;1.15;;;;;;;10.20;79.22;99899.19;5051288;28;20049;-71
2022/12/29 04:43:00;;;;;;;6.35;1.35;;;;;;;10.23;79.40;99898.63;5049322;28;20404;-70
2022/12/29 04:45:25;;;;;;;8.07;1.30;;;;;;;10.23;78.99;99898.63;5052758;28;20403;-70
2022/12/29 04:47:51;;;;;;;5.18;1.02;;;;;;;10.23;78.80;99906.97;5052734;28;20029;-70
2022/12/29 04:50:16;;;;;;;6.70;1.15;;;;;;;10.21;78.56;99912.75;5050206;28;20074;-70
2022/12/29 04:52:42;;;;;;;4.32;1.20;;;;;;;10.20;78.38;99913.03;5051464;28;20112;-70
2022/12/29 04:55:07;;;;;;;6.20;1.38;;;;;;;10.23;78.27;99909.72;5052514;28;20032;-71
2022/12/29 04:57:32;;;;;;;4.70;1.20;;;;;;;10.21;78.06;99907.22;5050741;28;20072;-70
2022/12/29 04:59:58;;;;;;;5.10;1.30;;;;;;;10.24;77.82;99922.47;5036903;28;20033;-70
2022/12/29 05:02:23;;;;;;;5.53;1.33;;;;;;;10.22;76.87;99924.72;5050795;28;20025;-70
2022/12/29 05:04:48;;;;;;;6.75;1.80;;;;;;;10.18;76.87;99924.41;5051618;28;20025;-70
2022/12/29 05:07:14;;;;;;;4.68;1.27;;;;;;;10.17;76.75;99922.72;5050602;28;20049;-70
2022/12/29 05:09:39;;;;;;;4.97;1.40;;;;;;;10.15;76.42;99924.13;5049167;28;20567;-70
2022/12/29 05:12:04;;;;;;;6.45;1.48;;;;;;;10.08;75.86;99938.25;5049853;28;20116;-70
2022/12/29 05:14:30;;;;;;;7.20;1.50;;;;;;;10.12;76.48;99930.22;5052361;28;20064;-70
2022/12/29 05:16:55;;;;;;;6.30;1.15;;;;;;;10.10;76.31;99938.81;5048997;28;20127;-71
2022/12/29 05:19:20;;;;;;;6.30;1.38;;;;;;;10.13;76.17;99946.56;5050895;28;20027;-71
2022/12/29 05:21:46;;;;;;;5.45;1.40;;;;;;;10.12;75.69;99944.06;5052124;28;20451;-71
2022/12/29 05:24:11;;;;;;;7.97;1.42;;;;;;;10.15;75.49;99957.41;5051118;28;20459;-70
2022/12/29 05:26:36;;;;;;;8.73;1.67;;;;;;;10.11;74.43;99948.78;5049440;28;20056;-70
2022/12/29 05:29:02;;;;;;;6.90;1.75;;;;;;;10.11;75.75;99959.88;5050919;28;20039;-71
2022/12/29 05:31:27;;;;;;;3.42;1.27;;;;;;;10.14;75.59;99953.81;5048730;28;20044;-70
2022/12/29 05:33:52;;;;;;;4.80;1.48;;;;;;;10.14;75.45;99956.56;5049133;28;20117;-71
2022/12/29 05:36:18;;;;;;;6.03;1.38;;;;;;;10.12;75.00;99957.94;5037048;28;20060;-70
2022/12/29 05:38:44;;;;;;;6.88;1.30;;;;;;;10.15;75.88;99963.78;5049823;28;20029;-70
2022/12/29 05:41:09;;;;;;;5.57;1.27;;;;;;;10.17;75.33;99964.31;5050767;28;20045;-70
2022/12/29 05:43:35;;;;;;;2.88;1.00;;;;;;;10.16;75.08;99957.13;5052099;28;20033;-70
2022/12/29 05:46:01;;;;;;;5.25;1.42;;;;;;;10.15;74.48;99974.88;5051229;28;20456;-70
2022/12/29 05:48:26;;;;;;;7.68;1.60;;;;;;;10.12;74.27;99972.63;5049284;28;20064;-70
2022/12/29 05:50:52;;;;;;;4.90;1.40;;;;;;;10.16;74.90;99975.69;5047958;28;20496;-71
2022/12/29 05:53:17;;;;;;;2.88;1.10;;;;;;;10.17;74.56;99972.66;5049968;28;20480;-71
2022/12/29 05:55:44;;;;;;;7.03;1.40;;;;;;;10.20;74.48;99987.91;5050956;28;20104;-71
2022/12/29 05:58:10;;;;;;;5.88;1.50;;;;;;;10.15;74.07;99977.66;5049808;28;20037;-70
2022/12/29 06:00:35;;;;;;;4.72;1.55;;;;;;;10.20;73.97;99985.16;5046832;28;20091;-70
2022/12/29 06:03:00;;;;;;;8.70;1.58;;;;;;;10.21;73.72;99976.53;5048949;28;20039;-70
2022/12/29 06:05:26;;;;;;;5.32;1.48;;;;;;;10.23;74.13;99982.66;5049135;28;20094;-70
2022/12/29 06:07:51;;;;;;;3.40;1.45;;;;;;;10.22;73.55;99981.00;5048273;28;20506;-70
2022/12/29 06:10:17;;;;;;;2.28;0.90;;;;;;;10.23;74.04;99988.22;5050346;28;20171;-70
2022/12/29 06:12:42;;;;;;;6.22;1.25;;;;;;;10.26;74.09;99981.31;5048079;28;20070;-70
2022/12/29 06:15:08;;;;;;;6.22;1.35;;;;;;;10.27;73.90;99989.38;5051538;28;20043;-70
2022/12/29 06:17:33;;;;;;;6.65;1.55;;;;;;;10.26;73.48;100006.28;5048663;28;20025;-70
2022/12/29 06:19:58;;;;;;;5.45;1.50;;;;;;;10.28;73.55;99988.25;5040018;28;20090;-70
2022/12/29 06:22:24;;;;;;;7.72;1.83;;;;;;;10.27;72.64;99983.81;5040581;28;20095;-70
2022/12/29 06:24:49;;;;;;;5.90;1.45;;;;;;;10.24;72.45;99989.03;5051347;28;20036;-70
2022/12/29 06:27:15;;;;;;;3.65;1.27;;;;;;;10.21;72.87;99984.03;5051995;28;20547;-70
2022/12/29 06:29:40;;;;;;;6.28;1.15;;;;;;;10.24;72.93;99972.41;5051477;28;20032;-70
2022/12/29 06:32:06;;;;;;;3.90;1.25;;;;;;;10.21;72.22;99970.16;5050659;28;20024;-70
2022/12/29 06:34:31;;;;;;;5.85;1.27;;;;;;;10.23;72.58;99971.56;5048631;28;20035;-70
2022/12/29 06:36:57;;;;;;;5.90;1.30;;;;;;;10.25;72.18;99971.31;5047381;28;20040;-70
2022/12/29 06:39:22;;;;;;;5.82;1.50;;;;;;;10.21;71.63;99961.84;5046532;28;20025;-70
2022/12/29 06:41:47;;;;;;;5.88;1.40;;;;;;;10.18;71.69;99968.78;5049322;28;20051;-70
2022/12/29 06:44:13;;;;;;;6.57;1.52;;;;;;;10.20;71.70;99983.19;5050827;28;20035;-70
2022/12/29 06:46:38;;;;;;;6.82;1.98;;;;;;;10.18;72.17;99974.34;5050495;28;20033;-70
2022/12/29 06:49:03;;;;;;;4.85;1.45;;;;;;;10.16;72.31;99970.97;5048955;28;20044;-70
2022/12/29 06:51:29;;;;;;;6.13;1.50;;;;;;;10.17;72.49;99971.81;5049182;28;20495;-71
2022/12/29 06:53:54;;;;;;;10.15;1.55;;;;;;;10.19;72.44;99972.38;5048828;28;20396;-70
2022/12/29 06:56:19;;;;;;;5.45;1.40;;;;;;;10.19;72.02;99980.72;5045308;28;20078;-70
2022/12/29 06:58:44;;;;;;;4.45;1.67;;;;;;;10.19;72.54;99964.91;5050221;28;20029;-70
2022/12/29 07:01:10;;;;;;;6.55;1.38;;;;;;;10.18;72.01;99979.88;5050930;28;20032;-70
2022/12/29 07:03:35;;;;;;;7.97;1.33;;;;;;;10.19;72.11;99980.72;5048967;28;20075;-70
2022/12/29 07:06:00;;;;;;;7.65;1.60;;;;;;;10.18;71.84;99982.66;5049158;28;20021;-70
2022/12/29 07:08:26;;;;;;;6.78;1.70;;;;;;;10.19;71.72;99983.47;5047395;28;20136;-70
2022/12/29 07:10:51;;;;;;;4.82;1.60;;;;;;;10.20;71.56;99985.16;5045188;28;20025;-70
2022/12/29 07:13:16;;;;;;;7.20;1.50;;;;;;;10.24;72.01;99991.81;5043170;28;20086;-70
2022/12/29 07:15:42;;;;;;;10.13;1.75;;;;;;;10.21;71.02;100006.22;5041237;28;20509;-71
2022/12/29 07:18:07;;;;;;;10.07;1.77;;;;;;;10.21;71.56;100006.22;5044722;28;20135;-71
2022/12/29 07:20:32;;;;;;;5.78;1.50;;;;;;;10.24;72.04;100027.88;5045560;28;20031;-70
2022/12/29 07:22:58;;;;;;;8.75;1.60;;;;;;;10.23;71.06;100018.72;5044651;28;20041;-70
2022/12/29 07:25:23;;;;;;;6.32;1.63;;;;;;;10.24;70.83;100022.31;5044826;28;20497;-70
2022/12/29 07:27:49;;;;;;;9.00;2.17;;;;;;;10.25;70.53;100037.88;5047822;28;20028;-74
2022/12/29 07:30:15;;;;;;;5.70;1.65;;;;;;;10.23;70.23;100035.34;5044899;28;20037;-70
2022/12/29 07:32:40;;;;;;;10.32;1.88;;;;;;;10.20;69.52;100026.75;5031653;28;20083;-73
2022/12/29 07:35:06;;;;;;;8.02;2.00;;;;;;;10.21;69.77;100045.88;5040260;28;20102;-73
2022/12/29 07:37:31;;;;;;;8.57;1.90;;;;;;;10.25;71.12;100040.66;5040585;28;20807;-72
2022/12/29 07:40:38;;;;;;;7.07;2.10;;;;;;;10.21;69.33;100026.47;5043406;28;20468;-72
2022/12/29 07:43:03;;;;;;;7.43;2.00;;;;;;;10.17;68.56;100039.19;5020035;28;20496;-73
2022/12/29 07:45:34;;;;;;;10.25;2.13;;;;;;;10.20;69.88;100054.47;5023931;28;20029;-72
2022/12/29 07:48:03;;;;;;;8.30;2.10;;;;;;;10.20;69.16;100041.44;5022357;28;20083;-76
2022/12/29 07:50:28;;;;;;;8.82;1.90;;;;;;;10.18;68.91;100040.03;5022617;28;21961;-76
2022/12/29 07:52:53;;;;;;;7.28;1.98;;;;;;;10.17;69.20;100027.28;5008384;28;20029;-75
2022/12/29 07:55:19;;;;;;;10.27;2.17;;;;;;;10.16;68.67;100033.94;5024371;28;20037;-71
2022/12/29 07:57:44;;;;;;;8.73;2.50;;;;;;;10.18;69.19;100028.94;5027774;28;20134;-75
2022/12/29 08:00:10;;;;;;;7.25;2.25;;;;;;;10.21;69.74;100033.94;5023233;28;20129;-75
2022/12/29 08:02:36;;;;;;;11.45;3.03;;;;;;;10.20;69.32;100038.66;5024099;28;20029;-73
2022/12/29 08:05:02;;;;;;;9.18;2.17;;;;;;;10.20;70.08;100037.84;5027317;28;20498;-72
2022/12/29 08:07:27;;;;;;;12.60;2.75;;;;;;;10.18;68.63;100051.97;5024471;28;20047;-74
2022/12/29 08:09:53;;;;;;;13.25;2.33;;;;;;;10.20;69.31;100057.25;5025933;28;20038;-73
2022/12/29 08:12:18;;;;;;;8.32;2.60;;;;;;;10.21;69.43;100042.28;5027649;28;20025;-74
2022/12/29 08:14:44;;;;;;;10.35;2.15;;;;;;;10.21;69.13;100043.09;5026173;28;20112;-76
2022/12/29 08:17:09;;;;;;;7.25;1.83;;;;;;;10.19;68.85;100044.50;5028189;28;20100;-76
2022/12/29 08:19:35;;;;;;;8.90;2.33;;;;;;;10.19;67.99;100048.09;5027685;28;20060;-74
2022/12/29 08:22:01;;;;;;;7.88;2.35;;;;;;;10.20;67.64;100043.38;5015628;28;20430;-73
2022/12/29 08:24:26;;;;;;;9.40;1.80;;;;;;;10.23;67.85;100051.16;5023857;28;20060;-74
2022/12/29 08:26:52;;;;;;;9.95;2.15;;;;;;;10.20;67.10;100051.69;5022865;28;20037;-73
2022/12/29 08:29:17;;;;;;;13.25;2.95;;;;;;;10.20;67.90;100054.47;5008877;28;20202;-74
2022/12/29 08:31:43;;;;;;;9.57;2.17;;;;;;;10.24;67.77;100055.59;5015027;28;20041;-69
2022/12/29 08:34:08;;;;;;;11.65;2.42;;;;;;;10.22;67.53;100063.38;5020977;28;20030;-69
2022/12/29 08:36:33;;;;;;;9.27;1.75;;;;;;;10.24;67.63;100067.53;5009555;28;20033;-68
2022/12/29 08:38:59;;;;;;;8.32;1.90;;;;;;;10.25;67.33;100047.03;5014243;28;20114;-68
2022/12/29 08:41:24;;;;;;;10.68;2.33;;;;;;;10.25;67.03;100057.28;5026143;28;20041;-69
2022/12/29 08:43:49;;;;;;;4.47;1.63;;;;;;;10.30;67.46;100055.41;5020716;28;20033;-68
2022/12/29 08:46:15;;;;;;;9.70;2.08;;;;;;;10.30;67.34;100051.78;5028777;28;20219;-69
2022/12/29 08:48:41;;;;;;;10.00;2.20;;;;;;;10.31;66.75;100067.31;5029652;28;20051;-69
2022/12/29 08:51:07;;;;;;;8.85;2.28;;;;;;;10.33;67.12;100056.78;5027356;28;20103;-68
2022/12/29 08:53:34;;;;;;;7.30;1.98;;;;;;;10.31;66.81;100056.22;5030536;28;20128;-68
2022/12/29 08:56:00;;;;;;;8.82;1.95;;;;;;;10.33;67.63;100067.88;5031379;28;20025;-72
2022/12/29 08:58:26;;;;;;;10.82;2.08;;;;;;;10.35;66.65;100060.13;5031434;28;20037;-72
2022/12/29 09:00:53;;;;;;;10.90;1.85;;;;;;;10.32;66.96;100075.34;5032636;28;20079;-72
2022/12/29 09:03:19;;;;;;;9.00;2.10;;;;;;;10.32;67.04;100072.59;5029629;28;20076;-74
2022/12/29 09:05:48;;;;;;;10.25;2.55;;;;;;;10.31;67.04;100053.44;5032386;28;20033;-73
2022/12/29 09:08:13;;;;;;;6.97;1.80;;;;;;;10.32;67.71;100069.81;5029416;28;20026;-65
2022/12/29 09:10:38;;;;;;;8.18;1.95;;;;;;;10.32;66.73;100069.81;5029178;28;20033;-71
2022/12/29 09:13:04;;;;;;;11.68;2.67;;;;;;;10.35;66.94;100081.47;5032011;28;20543;-73
2022/12/29 09:15:29;;;;;;;10.35;2.10;;;;;;;10.35;68.06;100085.09;5032841;28;20120;-72
2022/12/29 09:17:55;;;;;;;6.38;1.88;;;;;;;10.34;68.33;100093.69;5030175;28;20034;-72
2022/12/29 09:20:20;;;;;;;8.52;2.30;;;;;;;10.31;68.10;100076.47;5030687;28;20068;-73
2022/12/29 09:22:47;;;;;;;9.55;2.20;;;;;;;10.34;68.44;100088.16;5017147;28;20101;-73
2022/12/29 09:25:12;;;;;;;9.75;2.40;;;;;;;10.34;68.89;100086.19;5021962;28;20025;-73
2022/12/29 09:27:38;;;;;;;16.77;3.05;;;;;;;10.36;69.59;100097.84;5032930;28;20029;-73
2022/12/29 09:30:06;;;;;;;7.75;1.88;;;;;;;10.35;69.62;100107.28;5031885;28;20687;-74
2022/12/29 09:32:32;;;;;;;7.43;2.00;;;;;;;10.36;69.62;100108.13;5032662;28;20481;-73
2022/12/29 09:34:57;;;;;;;8.60;2.00;;;;;;;10.28;69.79;100110.28;5031789;28;20112;-73
2022/12/29 09:37:22;;;;;;;9.05;2.15;;;;;;;10.24;69.90;100114.69;5027765;28;20033;-63
2022/12/29 09:39:48;;;;;;;10.13;2.20;;;;;;;10.20;70.01;100104.38;5027166;28;20113;-63
2022/12/29 09:42:22;;;;;;;9.80;2.95;;;;;;;10.20;70.73;100116.31;5030556;28;20036;-75
2022/12/29 09:45:25;;;;;;;7.90;2.22;;;;;;;10.26;70.79;100117.22;5028691;28;20024;-73
2022/12/29 09:47:51;;;;;;;9.90;2.80;;;;;;;10.24;70.74;100122.16;5019193;28;20041;-74
2022/12/29 09:50:28;;;;;;;12.52;3.40;;;;;;;10.28;71.04;100128.88;5031805;28;20053;-73
2022/12/29 09:53:02;;;;;;;8.05;2.42;;;;;;;10.29;70.99;100147.19;5031452;28;20045;-73
2022/12/29 09:55:41;;;;;;;12.35;2.90;;;;;;;10.23;71.28;100146.28;5031893;28;20328;-73
2022/12/29 09:58:18;;;;;;;11.60;2.08;;;;;;;10.24;71.58;100141.56;5031278;28;20469;-74
2022/12/29 10:01:01;;;;;;;8.75;2.00;;;;;;;10.27;71.86;100166.88;5031977;28;20025;-73
2022/12/29 10:03:40;;;;;;;9.43;1.83;;;;;;;10.24;72.02;100156.28;5028865;28;20481;-73
2022/12/29 10:06:37;;;;;;;12.93;1.90;;;;;;;10.21;72.15;100169.84;5031238;28;20030;-73
2022/12/29 10:09:18;;;;;;;12.68;2.10;;;;;;;10.20;72.28;100177.34;5022007;28;20049;-73
2022/12/29 10:12:19;;;;;;;8.60;1.65;;;;;;;10.20;72.71;100176.50;5031776;28;20585;-73
2022/12/29 10:15:21;;;;;;;8.55;1.98;;;;;;;10.23;73.08;100209.25;5031735;28;20044;-73
2022/12/29 10:18:03;;;;;;;10.07;1.95;;;;;;;10.18;73.63;100200.88;5030846;28;20466;-73
2022/12/29 10:20:52;;;;;;;9.40;2.38;;;;;;;10.19;73.79;100203.41;5024748;28;20025;-73
2022/12/29 10:23:28;;;;;;;10.70;2.30;;;;;;;10.18;74.23;100203.66;5031677;28;20112;-73
2022/12/29 10:25:56;;;;;;;19.50;3.45;;;;;;;10.14;74.20;100213.59;5031147;28;20075;-73
2022/12/29 10:28:41;;;;;;;10.45;2.67;;;;;;;10.17;74.52;100210.31;5030449;28;20078;-73
2022/12/29 10:31:16;;;;;;;13.02;3.35;;;;;;;10.13;74.62;100220.25;5031324;28;20083;-73
2022/12/29 10:33:42;;;;;;;6.47;1.98;;;;;;;10.13;74.88;100217.47;5029656;28;20108;-73
2022/12/29 10:36:16;;;;;;;52.63;7.47;;;;;;;10.11;74.88;100217.75;5023128;28;20137;-74
2022/12/29 10:38:53;;;;;;;13.07;2.17;;;;;;;10.12;74.89;100236.06;5011464;28;20188;-75
2022/12/29 10:41:28;;;;;;;19.00;3.30;;;;;;;10.12;75.03;100238.00;5028189;28;20112;-67
2022/12/29 10:43:57;;;;;;;11.75;2.08;;;;;;;10.06;75.02;100257.38;5031174;28;20400;-75
2022/12/29 10:46:29;;;;;;;10.50;2.40;;;;;;;10.02;75.44;100239.59;5027317;28;20032;-76
2022/12/29 10:48:54;;;;;;;52.10;5.15;;;;;;;10.01;75.28;100246.22;5027020;28;20029;-76
2022/12/29 10:51:47;;;;;;;15.93;2.65;;;;;;;10.08;75.18;100246.00;5030032;28;20447;-76
2022/12/29 10:54:25;;;;;;;8.85;2.22;;;;;;;10.02;74.98;100250.69;5024689;28;20128;-74
2022/12/29 10:57:03;;;;;;;9.48;2.22;;;;;;;10.03;75.34;100260.69;5023046;28;20099;-75
2022/12/29 10:59:35;;;;;;;8.38;1.90;;;;;;;10.01;75.32;100262.88;5031106;28;20184;-74
2022/12/29 11:02:06;;;;;;;7.65;2.20;;;;;;;10.03;75.72;100266.22;5029343;28;20088;-73
2022/12/29 11:04:41;;;;;;;13.00;2.10;;;;;;;10.02;75.57;100264.56;5031954;28;20385;-72
2022/12/29 11:07:08;;;;;;;10.18;2.20;;;;;;;9.97;75.96;100272.81;5029792;28;20384;-73
2022/12/29 11:09:37;;;;;;;10.57;2.40;;;;;;;9.92;76.78;100277.47;5030054;28;20052;-73
2022/12/29 11:12:32;;;;;;;16.17;3.00;;;;;;;9.96;76.15;100268.38;5028346;28;20055;-72
2022/12/29 11:15:07;;;;;;;11.02;2.35;;;;;;;9.89;76.49;100272.47;5011535;28;20052;-71
2022/12/29 11:17:59;;;;;;;9.55;2.13;;;;;;;9.93;76.46;100274.44;5030119;28;20091;-72
2022/12/29 11:20:32;;;;;;;15.47;2.67;;;;;;;9.92;76.32;100278.31;5030639;28;20029;-71
2022/12/29 11:22:58;;;;;;;15.52;3.00;;;;;;;9.96;76.50;100282.22;5028567;28;20044;-73
2022/12/29 11:25:24;;;;;;;13.48;2.83;;;;;;;10.00;76.46;100286.16;5025655;28;20026;-71
2022/12/29 11:28:02;;;;;;;9.68;2.35;;;;;;;10.03;75.79;100293.13;5017811;28;20528;-71
2022/12/29 11:30:30;;;;;;;12.35;2.67;;;;;;;10.02;75.32;100296.97;5020789;28;20412;-70
2022/12/29 11:32:56;;;;;;;10.77;2.08;;;;;;;10.05;75.07;100291.72;5014088;28;20191;-74
2022/12/29 11:35:41;;;;;;;20.13;3.03;;;;;;;10.07;75.03;100292.31;5024850;28;20049;-73
2022/12/29 11:38:19;;;;;;;17.25;3.00;;;;;;;10.07;74.76;100286.78;5029297;28;20036;-71
2022/12/29 11:40:44;;;;;;;15.75;2.63;;;;;;;10.08;74.84;100304.25;5028306;28;20040;-71
2022/12/29 11:43:33;;;;;;;11.90;2.65;;;;;;;10.12;74.87;100305.41;5029525;28;20037;-72
2022/12/29 11:45:59;;;;;;;13.75;3.28;;;;;;;10.14;74.73;100319.84;5014969;28;20080;-75
2022/12/29 11:48:37;;;;;;;10.85;2.47;;;;;;;10.14;74.60;100311.53;5028660;28;20036;-71
2022/12/29 11:51:03;;;;;;;10.45;2.35;;;;;;;10.08;74.22;100307.84;5025259;28;20054;-68
2022/12/29 11:53:51;;;;;;;10.73;2.67;;;;;;;10.09;74.54;100309.50;5027319;28;20026;-69
2022/12/29 11:56:42;;;;;;;10.15;2.20;;;;;;;10.13;74.65;100328.41;5027022;28;20069;-71
2022/12/29 11:59:38;;;;;;;13.82;2.50;;;;;;;10.15;74.79;100317.91;5026657;28;20481;-67
2022/12/29 12:02:45;;;;;;;12.20;2.53;;;;;;;10.18;74.49;100322.91;5011245;28;20037;-69
2022/12/29 12:05:26;;;;;;;14.57;2.65;;;;;;;10.14;74.21;100316.22;4959689;28;20501;-71
2022/12/29 12:07:57;;;;;;;16.30;2.80;;;;;;;10.16;74.52;100317.63;4962662;28;20043;-70
2022/12/29 12:10:32;;;;;;;10.52;2.45;;;;;;;10.14;73.73;100308.75;4995229;28;20392;-70
2022/12/29 12:13:10;;;;;;;13.88;2.58;;;;;;;10.18;73.55;100315.44;5028497;28;20072;-70
2022/12/29 12:15:42;;;;;;;10.50;2.58;;;;;;;10.20;73.01;100306.84;5019120;28;20508;-67
2022/12/29 12:18:28;;;;;;;13.25;2.90;;;;;;;10.20;72.98;100315.16;5028069;28;20079;-69